Time,TemperatureF,DewpointF,PressureIn,WindDirection,WindDirectionDegrees,WindSpeedMPH,WindSpeedGustMPH,Humidity,HourlyPrecipIn,Conditions,Clouds,dailyrainin,SoftwareType,DateUTC
2013-02-14 00:21:00,23.0,22.0,-100.00,ENE,76,1.0,2.0,95,0.00,,,0.18,,2013-02-14 07:21:00,
2013-02-14 00:31:00,23.0,22.0,-100.00,ENE,76,1.0,2.0,95,0.00,,,0.18,,2013-02-14 07:31:00,
2013-02-14 00:41:00,23.0,22.0,-100.00,ENE,76,1.0,2.0,95,0.00,,,0.18,,2013-02-14 07:41:00,
2013-02-14 00:51:00,23.0,22.0,-100.00,ENE,76,1.0,2.0,95,0.00,,,0.18,,2013-02-14 07:51:00,
2013-02-14 01:11:00,23.0,22.0,-100.00,West,262,2.0,4.0,94,0.00,,,0.18,,2013-02-14 08:11:00,
2013-02-14 01:21:00,23.0,22.0,-100.00,West,262,2.0,4.0,94,0.00,,,0.18,,2013-02-14 08:21:00,
2013-02-14 01:31:00,23.0,22.0,-100.00,West,262,2.0,4.0,94,0.00,,,0.18,,2013-02-14 08:31:00,
2013-02-14 01:43:00,23.0,22.0,-100.00,West,262,2.0,4.0,94,0.00,,,0.18,,2013-02-14 08:43:00,
2013-02-14 01:52:00,23.0,22.0,-100.00,West,262,2.0,4.0,94,0.00,,,0.18,,2013-02-14 08:52:00,
2013-02-14 02:11:00,23.0,21.0,-100.00,ENE,66,4.0,5.0,94,0.00,,,0.18,,2013-02-14 09:11:00,
2013-02-14 02:21:00,23.0,21.0,-100.00,ENE,66,4.0,5.0,94,0.00,,,0.18,,2013-02-14 09:21:00,
2013-02-14 02:31:00,23.0,21.0,-100.00,ENE,66,4.0,5.0,94,0.00,,,0.18,,2013-02-14 09:31:00,
2013-02-14 02:41:00,23.0,21.0,-100.00,ENE,66,4.0,5.0,94,0.00,,,0.18,,2013-02-14 09:41:00,
2013-02-14 02:51:00,23.0,21.0,-100.00,ENE,66,4.0,5.0,94,0.00,,,0.18,,2013-02-14 09:51:00,
2013-02-14 03:11:00,21.0,19.0,-100.00,West,275,2.0,4.0,93,0.00,,,0.18,,2013-02-14 10:11:00,
2013-02-14 03:21:00,21.0,19.0,-100.00,West,275,2.0,4.0,93,0.00,,,0.18,,2013-02-14 10:21:00,
2013-02-14 03:31:00,21.0,19.0,-100.00,West,275,2.0,4.0,93,0.00,,,0.18,,2013-02-14 10:31:00,
2013-02-14 03:41:00,21.0,19.0,-100.00,West,275,2.0,4.0,93,0.00,,,0.18,,2013-02-14 10:41:00,
2013-02-14 03:52:00,21.0,19.0,-100.00,West,275,2.0,4.0,93,0.00,,,0.18,,2013-02-14 10:52:00,
2013-02-14 04:21:00,20.0,19.0,-100.00,North,0,0.0,1.0,93,0.00,,,0.18,,2013-02-14 11:21:00,
2013-02-14 04:31:00,20.0,19.0,-100.00,North,0,0.0,1.0,93,0.00,,,0.18,,2013-02-14 11:31:00,
2013-02-14 04:42:00,20.0,19.0,-100.00,North,0,0.0,1.0,93,0.00,,,0.18,,2013-02-14 11:42:00,
2013-02-14 04:52:00,20.0,19.0,-100.00,North,0,0.0,1.0,93,0.00,,,0.18,,2013-02-14 11:52:00,
2013-02-14 05:22:00,18.0,16.0,-100.00,SE,135,4.0,6.0,92,0.00,,,0.16,,2013-02-14 12:22:00,
2013-02-14 05:32:00,18.0,16.0,-100.00,SE,135,4.0,6.0,92,0.00,,,0.16,,2013-02-14 12:32:00,
2013-02-14 05:42:00,18.0,16.0,-100.00,SE,135,4.0,6.0,92,0.00,,,0.16,,2013-02-14 12:42:00,
2013-02-14 05:53:00,18.0,16.0,-100.00,SE,135,4.0,6.0,92,0.00,,,0.16,,2013-02-14 12:53:00,
2013-02-14 06:21:00,17.0,15.0,-100.00,East,81,2.0,5.0,92,0.00,,,0.15,,2013-02-14 13:21:00,
2013-02-14 06:31:00,17.0,15.0,-100.00,East,81,2.0,5.0,92,0.00,,,0.15,,2013-02-14 13:31:00,
2013-02-14 06:41:00,17.0,15.0,-100.00,East,81,2.0,5.0,92,0.00,,,0.15,,2013-02-14 13:41:00,
2013-02-14 06:51:00,17.0,15.0,-100.00,East,81,2.0,5.0,92,0.00,,,0.15,,2013-02-14 13:51:00,
2013-02-14 07:21:00,11.0,9.0,-100.00,WSW,256,1.0,1.0,90,0.00,,,0.13,,2013-02-14 14:21:00,
2013-02-14 07:31:00,11.0,9.0,-100.00,WSW,256,1.0,1.0,90,0.00,,,0.13,,2013-02-14 14:31:00,
2013-02-14 07:41:00,11.0,9.0,-100.00,WSW,256,1.0,1.0,90,0.00,,,0.13,,2013-02-14 14:41:00,
2013-02-14 07:52:00,11.0,9.0,-100.00,WSW,256,1.0,1.0,90,0.00,,,0.13,,2013-02-14 14:52:00,
2013-02-14 08:11:00,5.0,2.0,-100.00,NNE,19,0.0,1.0,87,0.00,,,0.10,,2013-02-14 15:11:00,
2013-02-14 08:21:00,5.0,2.0,-100.00,NNE,19,0.0,1.0,87,0.00,,,0.10,,2013-02-14 15:21:00,
2013-02-14 09:11:00,6.0,3.0,-100.00,North,359,2.0,2.0,89,-99.99,,,0.07,,2013-02-14 16:11:00,
2013-02-14 09:21:00,6.0,3.0,-100.00,North,359,2.0,2.0,89,-99.99,,,0.07,,2013-02-14 16:21:00,
2013-02-14 10:11:00,16.0,14.0,-100.00,SSE,166,1.0,1.0,92,-99.99,,,0.05,,2013-02-14 17:11:00,
2013-02-14 10:21:00,16.0,14.0,-100.00,SSE,166,1.0,1.0,92,-99.99,,,0.05,,2013-02-14 17:21:00,
2013-02-14 10:31:00,16.0,14.0,-100.00,SSE,166,1.0,1.0,92,-99.99,,,0.05,,2013-02-14 17:31:00,
2013-02-14 10:41:00,16.0,14.0,-100.00,SSE,166,1.0,1.0,92,-99.99,,,0.05,,2013-02-14 17:41:00,
2013-02-14 10:52:00,16.0,14.0,-100.00,SSE,166,1.0,1.0,92,-99.99,,,0.05,,2013-02-14 17:52:00,
2013-02-14 11:22:00,28.0,25.0,-100.00,SSE,160,4.0,7.0,88,0.00,,,0.02,,2013-02-14 18:22:00,
2013-02-14 11:31:00,28.0,25.0,-100.00,SSE,160,4.0,7.0,88,0.00,,,0.02,,2013-02-14 18:31:00,
2013-02-14 11:41:00,28.0,25.0,-100.00,SSE,160,4.0,7.0,88,0.00,,,0.02,,2013-02-14 18:41:00,
2013-02-14 11:51:00,28.0,25.0,-100.00,SSE,160,4.0,7.0,88,0.00,,,0.02,,2013-02-14 18:51:00,
2013-02-14 12:11:00,30.0,21.0,-100.00,SW,231,1.0,5.0,69,0.00,,,0.00,,2013-02-14 19:11:00,
2013-02-14 12:21:00,30.0,21.0,-100.00,SW,231,1.0,5.0,69,0.00,,,0.00,,2013-02-14 19:21:00,
2013-02-14 12:31:00,30.0,21.0,-100.00,SW,231,1.0,5.0,69,0.00,,,0.00,,2013-02-14 19:31:00,
2013-02-14 12:41:00,30.0,21.0,-100.00,SW,231,1.0,5.0,69,0.00,,,0.00,,2013-02-14 19:41:00,
2013-02-14 12:51:00,30.0,21.0,-100.00,SW,231,1.0,5.0,69,0.00,,,0.00,,2013-02-14 19:51:00,
2013-02-14 13:21:00,32.0,24.0,-100.00,SSE,156,6.0,12.0,70,0.00,,,0.00,,2013-02-14 20:21:00,
2013-02-14 13:31:00,32.0,24.0,-100.00,SSE,156,6.0,12.0,70,0.00,,,0.00,,2013-02-14 20:31:00,
2013-02-14 13:41:00,32.0,24.0,-100.00,SSE,156,6.0,12.0,70,0.00,,,0.00,,2013-02-14 20:41:00,
2013-02-14 13:52:00,32.0,24.0,-100.00,SSE,156,6.0,12.0,70,0.00,,,0.00,,2013-02-14 20:52:00,
2013-02-14 14:11:00,31.0,21.0,-100.00,South,183,7.0,13.0,68,0.00,,,0.00,,2013-02-14 21:11:00,
2013-02-14 14:21:00,31.0,21.0,-100.00,South,183,7.0,13.0,68,0.00,,,0.00,,2013-02-14 21:21:00,
2013-02-14 14:31:00,31.0,21.0,-100.00,South,183,7.0,13.0,68,0.00,,,0.00,,2013-02-14 21:31:00,
2013-02-14 14:41:00,31.0,21.0,-100.00,South,183,7.0,13.0,68,0.00,,,0.00,,2013-02-14 21:41:00,
2013-02-14 14:51:00,31.0,21.0,-100.00,South,183,7.0,13.0,68,0.00,,,0.00,,2013-02-14 21:51:00,
2013-02-14 15:21:00,32.0,20.0,-100.00,NE,41,6.0,12.0,62,0.00,,,0.00,,2013-02-14 22:21:00,
2013-02-14 15:31:00,32.0,20.0,-100.00,NE,41,6.0,12.0,62,0.00,,,0.00,,2013-02-14 22:31:00,
2013-02-14 15:41:00,32.0,20.0,-100.00,NE,41,6.0,12.0,62,0.00,,,0.00,,2013-02-14 22:41:00,
2013-02-14 15:51:00,32.0,20.0,-100.00,NE,41,6.0,12.0,62,0.00,,,0.00,,2013-02-14 22:51:00,
2013-02-14 16:11:00,33.0,16.0,-100.00,SW,217,6.0,13.0,49,0.00,,,0.00,,2013-02-14 23:11:00,
2013-02-14 16:21:00,33.0,16.0,-100.00,SW,217,6.0,13.0,49,0.00,,,0.00,,2013-02-14 23:21:00,
2013-02-14 16:31:00,33.0,16.0,-100.00,SW,217,6.0,13.0,49,0.00,,,0.00,,2013-02-14 23:31:00,
2013-02-14 16:41:00,33.0,16.0,-100.00,SW,217,6.0,13.0,49,0.00,,,0.00,,2013-02-14 23:41:00,
2013-02-14 16:52:00,33.0,16.0,-100.00,SW,217,6.0,13.0,49,0.00,,,0.00,,2013-02-14 23:52:00,
2013-02-14 17:11:00,32.0,18.0,-100.00,WSW,258,4.0,8.0,56,0.00,,,0.00,,2013-02-15 00:11:00,
2013-02-14 17:21:00,32.0,18.0,-100.00,WSW,258,4.0,8.0,56,0.00,,,0.00,,2013-02-15 00:21:00,
2013-02-14 17:31:00,32.0,18.0,-100.00,WSW,258,4.0,8.0,56,0.00,,,0.00,,2013-02-15 00:31:00,
2013-02-14 17:41:00,32.0,18.0,-100.00,WSW,258,4.0,8.0,56,0.00,,,0.00,,2013-02-15 00:41:00,
2013-02-14 17:51:00,32.0,18.0,-100.00,WSW,258,4.0,8.0,56,0.00,,,0.00,,2013-02-15 00:51:00,
2013-02-14 18:11:00,26.0,16.0,-100.00,WSW,249,7.0,12.0,67,0.00,,,0.00,,2013-02-15 01:11:00,
2013-02-14 18:21:00,26.0,16.0,-100.00,WSW,249,7.0,12.0,67,0.00,,,0.00,,2013-02-15 01:21:00,
2013-02-14 18:31:00,26.0,16.0,-100.00,WSW,249,7.0,12.0,67,0.00,,,0.00,,2013-02-15 01:31:00,
2013-02-14 18:41:00,26.0,16.0,-100.00,WSW,249,7.0,12.0,67,0.00,,,0.00,,2013-02-15 01:41:00,
2013-02-14 18:51:00,26.0,16.0,-100.00,WSW,249,7.0,12.0,67,0.00,,,0.00,,2013-02-15 01:51:00,
2013-02-14 19:11:00,23.0,19.0,-100.00,WSW,250,5.0,9.0,83,0.00,,,0.00,,2013-02-15 02:11:00,
2013-02-14 19:21:00,23.0,19.0,-100.00,WSW,250,5.0,9.0,83,0.00,,,0.00,,2013-02-15 02:21:00,
2013-02-14 19:31:00,23.0,19.0,-100.00,WSW,250,5.0,9.0,83,0.00,,,0.00,,2013-02-15 02:31:00,
2013-02-14 19:41:00,23.0,19.0,-100.00,WSW,250,5.0,9.0,83,0.00,,,0.00,,2013-02-15 02:41:00,
2013-02-14 19:51:00,23.0,19.0,-100.00,WSW,250,5.0,9.0,83,0.00,,,0.00,,2013-02-15 02:51:00,
2013-02-14 20:21:00,22.0,18.0,-100.00,SSW,208,4.0,5.0,83,0.00,,,0.00,,2013-02-15 03:21:00,
2013-02-14 20:32:00,22.0,18.0,-100.00,SSW,208,4.0,5.0,83,0.00,,,0.00,,2013-02-15 03:32:00,
2013-02-14 20:41:00,22.0,18.0,-100.00,SSW,208,4.0,5.0,83,0.00,,,0.00,,2013-02-15 03:41:00,
2013-02-14 20:51:00,22.0,18.0,-100.00,SSW,208,4.0,5.0,83,0.00,,,0.00,,2013-02-15 03:51:00,
2013-02-14 21:11:00,20.0,17.0,-100.00,East,83,1.0,2.0,87,0.00,,,0.00,,2013-02-15 04:11:00,
2013-02-14 21:21:00,20.0,17.0,-100.00,East,83,1.0,2.0,87,0.00,,,0.00,,2013-02-15 04:21:00,
2013-02-14 21:31:00,20.0,17.0,-100.00,East,83,1.0,2.0,87,0.00,,,0.00,,2013-02-15 04:31:00,
2013-02-14 21:41:00,20.0,17.0,-100.00,East,83,1.0,2.0,87,0.00,,,0.00,,2013-02-15 04:41:00,
2013-02-14 21:51:00,20.0,17.0,-100.00,East,83,1.0,2.0,87,0.00,,,0.00,,2013-02-15 04:51:00,
2013-02-14 22:11:00,19.0,17.0,-100.00,SW,220,1.0,2.0,89,0.00,,,0.00,,2013-02-15 05:11:00,
2013-02-14 22:22:00,19.0,17.0,-100.00,SW,220,1.0,2.0,89,0.00,,,0.00,,2013-02-15 05:22:00,
2013-02-14 22:32:00,19.0,17.0,-100.00,SW,220,1.0,2.0,89,0.00,,,0.00,,2013-02-15 05:32:00,
2013-02-14 22:41:00,19.0,17.0,-100.00,SW,220,1.0,2.0,89,0.00,,,0.00,,2013-02-15 05:41:00,
2013-02-14 22:52:00,19.0,17.0,-100.00,SW,220,1.0,2.0,89,0.00,,,0.00,,2013-02-15 05:52:00,
2013-02-14 23:11:00,16.0,14.0,-100.00,SSW,210,1.0,1.0,92,0.00,,,0.00,,2013-02-15 06:11:00,
2013-02-14 23:21:00,16.0,14.0,-100.00,SSW,210,1.0,1.0,92,0.00,,,0.00,,2013-02-15 06:21:00,
2013-02-14 23:31:00,16.0,14.0,-100.00,SSW,210,1.0,1.0,92,0.00,,,0.00,,2013-02-15 06:31:00,
2013-02-14 23:42:00,16.0,14.0,-100.00,SSW,210,1.0,1.0,92,0.00,,,0.00,,2013-02-15 06:42:00,
2013-02-14 23:51:00,16.0,14.0,-100.00,SSW,210,1.0,1.0,92,0.00,,,0.00,,2013-02-15 06:51:00,